Ashcroft

Ashcroft

Ashcroft Airfield (EGCR) is located 2nm south west of  Winsford in Cheshire.

It offers four grass runways:

  • 09/27 520m x 11m with lights
  • 13/31 500m x 12m
  • 17/35 350m x 10m
  • 12/30 500m x 10m

Safety Com 135.475

Link for Ashcroft Airfield Pilot Briefing.

Manchester Weather
EGCC 030659Z 0306/0412 19010KT 5000 -RADZ BR SCT001 BKN006 BECMG 0306/0309 25003KT TEMPO 0306/0310 1200 RADZ BKN001 PROB30 TEMPO 0306/0310 9999 NSW SCT006 BKN018 BECMG 0309/0312 9999 NSW SCT025 PROB40 TEMPO 0312/0320 5000 BR BKN006 TEMPO 0320/0405 4000 -RADZ SHRA BKN006 PROB30 TEMPO 0400/0405 1200 RADZ +SHRA BKN003 BECMG 0402/0405 27013KT TEMPO 0405/0412 6000 SHRA RA BKN014 PROB30 TEMPO 0405/0412 3000 +SHRAGS SHRASN BKN009 BKN018CB TEMPO 0409/0412 28016G26KT